Terminal Aerodrome Forecast
Issued by NWS

Home | Current Version | Previous Version | Text Only | Print | Product List | Glossary Off
Versions: 1 2 3 4 5 6 7 8 9 10 11 12 13 14

000
FTUS43 KFGF 021139
TAFBJI
TAF
KBJI 021139Z 0212/0312 34010KT P6SM VCTS BKN080CB
     FM021400 33009KT P6SM BKN050
     FM021700 32013G20KT P6SM SCT040
     FM030100 29005KT P6SM SKC=

USA.gov is the U.S. government's official web portal to all federal, state and local government web resources and services.